sensor_id;sensor_type;location;lat;lon;timestamp;temperature;humidity
14397;DHT22;50653;47.810;13.022;2024-03-02T00:00:10;8.30;99.90
14397;DHT22;50653;47.810;13.022;2024-03-02T00:02:42;8.30;99.90
14397;DHT22;50653;47.810;13.022;2024-03-02T00:05:19;8.30;99.90
14397;DHT22;50653;47.810;13.022;2024-03-02T00:07:47;8.30;99.90
14397;DHT22;50653;47.810;13.022;2024-03-02T00:10:20;8.30;99.90
14397;DHT22;50653;47.810;13.022;2024-03-02T00:12:49;8.30;99.90
14397;DHT22;50653;47.810;13.022;2024-03-02T00:17:43;8.40;99.90
14397;DHT22;50653;47.810;13.022;2024-03-02T00:20:09;8.40;99.90
14397;DHT22;50653;47.810;13.022;2024-03-02T00:22:35;8.30;99.90
14397;DHT22;50653;47.810;13.022;2024-03-02T00:25:03;8.30;99.90
14397;DHT22;50653;47.810;13.022;2024-03-02T00:27:29;8.30;99.90
14397;DHT22;50653;47.810;13.022;2024-03-02T00:29:54;8.30;99.90
14397;DHT22;50653;47.810;13.022;2024-03-02T00:32:22;8.30;99.90
14397;DHT22;50653;47.810;13.022;2024-03-02T00:34:48;8.40;99.90
14397;DHT22;50653;47.810;13.022;2024-03-02T00:37:14;8.30;99.90
14397;DHT22;50653;47.810;13.022;2024-03-02T00:39:40;8.40;99.90
14397;DHT22;50653;47.810;13.022;2024-03-02T00:42:05;8.40;99.90
14397;DHT22;50653;47.810;13.022;2024-03-02T00:44:33;8.40;99.90
14397;DHT22;50653;47.810;13.022;2024-03-02T00:47:01;8.40;99.90
14397;DHT22;50653;47.810;13.022;2024-03-02T00:49:27;8.30;99.90
14397;DHT22;50653;47.810;13.022;2024-03-02T00:51:54;8.40;99.90
14397;DHT22;50653;47.810;13.022;2024-03-02T00:54:21;8.40;99.90
14397;DHT22;50653;47.810;13.022;2024-03-02T00:56:49;8.40;99.90
14397;DHT22;50653;47.810;13.022;2024-03-02T00:59:15;8.30;99.90
14397;DHT22;50653;47.810;13.022;2024-03-02T01:01:41;8.30;99.90
14397;DHT22;50653;47.810;13.022;2024-03-02T01:04:07;8.40;99.90
14397;DHT22;50653;47.810;13.022;2024-03-02T01:06:33;8.30;99.90
14397;DHT22;50653;47.810;13.022;2024-03-02T01:08:59;8.30;99.90
14397;DHT22;50653;47.810;13.022;2024-03-02T01:11:25;8.30;99.90
14397;DHT22;50653;47.810;13.022;2024-03-02T01:13:51;8.30;99.90
14397;DHT22;50653;47.810;13.022;2024-03-02T01:16:20;8.30;99.90
14397;DHT22;50653;47.810;13.022;2024-03-02T01:18:46;8.30;99.90
14397;DHT22;50653;47.810;13.022;2024-03-02T01:21:11;8.20;99.90
14397;DHT22;50653;47.810;13.022;2024-03-02T01:23:37;8.20;99.90
14397;DHT22;50653;47.810;13.022;2024-03-02T01:26:03;8.10;99.90
14397;DHT22;50653;47.810;13.022;2024-03-02T01:28:29;8.10;99.90
14397;DHT22;50653;47.810;13.022;2024-03-02T01:30:54;8.10;99.90
14397;DHT22;50653;47.810;13.022;2024-03-02T01:33:20;8.10;99.90
14397;DHT22;50653;47.810;13.022;2024-03-02T01:35:46;8.10;99.90
14397;DHT22;50653;47.810;13.022;2024-03-02T01:38:13;8.20;99.90
14397;DHT22;50653;47.810;13.022;2024-03-02T01:40:39;8.10;99.90
14397;DHT22;50653;47.810;13.022;2024-03-02T01:43:05;8.10;99.90
14397;DHT22;50653;47.810;13.022;2024-03-02T01:45:31;8.20;99.90
14397;DHT22;50653;47.810;13.022;2024-03-02T01:47:57;8.10;99.90
14397;DHT22;50653;47.810;13.022;2024-03-02T01:50:28;8.10;99.90
14397;DHT22;50653;47.810;13.022;2024-03-02T01:52:57;8.10;99.90
14397;DHT22;50653;47.810;13.022;2024-03-02T01:55:23;8.20;99.90
14397;DHT22;50653;47.810;13.022;2024-03-02T01:57:50;8.20;99.90
14397;DHT22;50653;47.810;13.022;2024-03-02T02:00:17;8.20;99.90
14397;DHT22;50653;47.810;13.022;2024-03-02T02:02:43;8.20;99.90
14397;DHT22;50653;47.810;13.022;2024-03-02T02:05:09;8.20;99.90
14397;DHT22;50653;47.810;13.022;2024-03-02T02:07:35;8.20;99.90
14397;DHT22;50653;47.810;13.022;2024-03-02T02:10:01;8.30;99.90
14397;DHT22;50653;47.810;13.022;2024-03-02T02:12:27;8.30;99.90
14397;DHT22;50653;47.810;13.022;2024-03-02T02:14:53;8.20;99.90
14397;DHT22;50653;47.810;13.022;2024-03-02T02:17:19;8.20;99.90
14397;DHT22;50653;47.810;13.022;2024-03-02T02:19:45;8.20;99.90
14397;DHT22;50653;47.810;13.022;2024-03-02T02:22:11;8.10;99.90
14397;DHT22;50653;47.810;13.022;2024-03-02T02:24:40;8.10;99.90
14397;DHT22;50653;47.810;13.022;2024-03-02T02:27:10;8.10;99.90
14397;DHT22;50653;47.810;13.022;2024-03-02T02:29:36;8.10;99.90
14397;DHT22;50653;47.810;13.022;2024-03-02T02:32:02;8.10;99.90
14397;DHT22;50653;47.810;13.022;2024-03-02T02:34:28;8.10;99.90
14397;DHT22;50653;47.810;13.022;2024-03-02T02:36:54;8.00;99.90
14397;DHT22;50653;47.810;13.022;2024-03-02T02:39:21;8.00;99.90
14397;DHT22;50653;47.810;13.022;2024-03-02T02:41:48;7.90;99.90
14397;DHT22;50653;47.810;13.022;2024-03-02T02:44:13;8.00;99.90
14397;DHT22;50653;47.810;13.022;2024-03-02T02:46:40;8.00;99.90
14397;DHT22;50653;47.810;13.022;2024-03-02T02:49:06;8.00;99.90
14397;DHT22;50653;47.810;13.022;2024-03-02T02:51:32;8.00;99.90
14397;DHT22;50653;47.810;13.022;2024-03-02T02:53:58;7.90;99.90
14397;DHT22;50653;47.810;13.022;2024-03-02T02:56:24;7.90;99.90
14397;DHT22;50653;47.810;13.022;2024-03-02T02:58:50;8.00;99.90
14397;DHT22;50653;47.810;13.022;2024-03-02T03:01:16;7.90;99.90
14397;DHT22;50653;47.810;13.022;2024-03-02T03:03:45;7.90;99.90
14397;DHT22;50653;47.810;13.022;2024-03-02T03:06:11;7.90;99.90
14397;DHT22;50653;47.810;13.022;2024-03-02T03:08:37;7.80;99.90
14397;DHT22;50653;47.810;13.022;2024-03-02T03:11:03;7.70;99.90
14397;DHT22;50653;47.810;13.022;2024-03-02T03:13:30;7.80;99.90
14397;DHT22;50653;47.810;13.022;2024-03-02T03:15:56;7.80;99.90
14397;DHT22;50653;47.810;13.022;2024-03-02T03:18:22;7.70;99.90
14397;DHT22;50653;47.810;13.022;2024-03-02T03:20:48;7.60;99.90
14397;DHT22;50653;47.810;13.022;2024-03-02T03:23:13;7.70;99.90
14397;DHT22;50653;47.810;13.022;2024-03-02T03:25:43;7.70;99.90
14397;DHT22;50653;47.810;13.022;2024-03-02T03:28:08;7.70;99.90
14397;DHT22;50653;47.810;13.022;2024-03-02T03:30:38;7.60;99.90
14397;DHT22;50653;47.810;13.022;2024-03-02T03:33:04;7.60;99.90
14397;DHT22;50653;47.810;13.022;2024-03-02T03:35:31;7.70;99.90
14397;DHT22;50653;47.810;13.022;2024-03-02T03:37:57;7.60;99.90
14397;DHT22;50653;47.810;13.022;2024-03-02T03:40:23;7.60;99.90
14397;DHT22;50653;47.810;13.022;2024-03-02T03:42:48;7.60;99.90
14397;DHT22;50653;47.810;13.022;2024-03-02T03:45:16;7.60;99.90
14397;DHT22;50653;47.810;13.022;2024-03-02T03:47:41;7.60;99.90
14397;DHT22;50653;47.810;13.022;2024-03-02T03:50:07;7.50;99.90
14397;DHT22;50653;47.810;13.022;2024-03-02T03:52:33;7.60;99.90
14397;DHT22;50653;47.810;13.022;2024-03-02T03:54:59;7.60;99.90
14397;DHT22;50653;47.810;13.022;2024-03-02T03:57:26;7.50;99.90
14397;DHT22;50653;47.810;13.022;2024-03-02T03:59:52;7.60;99.90
14397;DHT22;50653;47.810;13.022;2024-03-02T04:02:18;7.60;99.90
14397;DHT22;50653;47.810;13.022;2024-03-02T04:04:43;7.50;99.90
14397;DHT22;50653;47.810;13.022;2024-03-02T04:07:09;7.50;99.90
14397;DHT22;50653;47.810;13.022;2024-03-02T04:09:35;7.50;99.90
14397;DHT22;50653;47.810;13.022;2024-03-02T04:12:00;7.50;99.90
14397;DHT22;50653;47.810;13.022;2024-03-02T04:14:26;7.50;99.90
14397;DHT22;50653;47.810;13.022;2024-03-02T04:16:52;7.50;99.90
14397;DHT22;50653;47.810;13.022;2024-03-02T04:19:17;7.40;99.90
14397;DHT22;50653;47.810;13.022;2024-03-02T04:21:43;7.40;99.90
14397;DHT22;50653;47.810;13.022;2024-03-02T04:24:09;7.40;99.90
14397;DHT22;50653;47.810;13.022;2024-03-02T04:26:34;7.30;99.90
14397;DHT22;50653;47.810;13.022;2024-03-02T04:29:00;7.30;99.90
14397;DHT22;50653;47.810;13.022;2024-03-02T04:31:26;7.30;99.90
14397;DHT22;50653;47.810;13.022;2024-03-02T04:33:51;7.30;99.90
14397;DHT22;50653;47.810;13.022;2024-03-02T04:36:17;7.20;99.90
14397;DHT22;50653;47.810;13.022;2024-03-02T04:38:43;7.20;99.90
14397;DHT22;50653;47.810;13.022;2024-03-02T04:41:08;7.10;99.90
14397;DHT22;50653;47.810;13.022;2024-03-02T04:43:34;7.20;99.90
14397;DHT22;50653;47.810;13.022;2024-03-02T04:46:00;7.20;99.90
14397;DHT22;50653;47.810;13.022;2024-03-02T04:48:26;7.10;99.90
14397;DHT22;50653;47.810;13.022;2024-03-02T04:50:52;7.10;99.90
14397;DHT22;50653;47.810;13.022;2024-03-02T04:53:18;7.10;99.90
14397;DHT22;50653;47.810;13.022;2024-03-02T04:55:44;7.10;99.90
14397;DHT22;50653;47.810;13.022;2024-03-02T04:58:09;7.00;99.90
14397;DHT22;50653;47.810;13.022;2024-03-02T05:00:35;7.00;99.90
14397;DHT22;50653;47.810;13.022;2024-03-02T05:03:02;7.00;99.90
14397;DHT22;50653;47.810;13.022;2024-03-02T05:05:27;7.00;99.90
14397;DHT22;50653;47.810;13.022;2024-03-02T05:07:53;7.00;99.90
14397;DHT22;50653;47.810;13.022;2024-03-02T05:10:19;6.80;99.90
14397;DHT22;50653;47.810;13.022;2024-03-02T05:12:44;6.70;99.90
14397;DHT22;50653;47.810;13.022;2024-03-02T05:15:14;6.60;99.90
14397;DHT22;50653;47.810;13.022;2024-03-02T05:17:41;6.60;99.90
14397;DHT22;50653;47.810;13.022;2024-03-02T05:20:09;6.60;99.90
14397;DHT22;50653;47.810;13.022;2024-03-02T05:22:35;6.40;99.90
14397;DHT22;50653;47.810;13.022;2024-03-02T05:25:01;6.40;99.90
14397;DHT22;50653;47.810;13.022;2024-03-02T05:27:28;6.40;99.90
14397;DHT22;50653;47.810;13.022;2024-03-02T05:29:53;6.50;99.90
14397;DHT22;50653;47.810;13.022;2024-03-02T05:32:19;6.50;99.90
14397;DHT22;50653;47.810;13.022;2024-03-02T05:34:45;6.50;99.90
14397;DHT22;50653;47.810;13.022;2024-03-02T05:37:10;6.40;99.90
14397;DHT22;50653;47.810;13.022;2024-03-02T05:39:36;6.30;99.90
14397;DHT22;50653;47.810;13.022;2024-03-02T05:42:02;6.40;99.90
14397;DHT22;50653;47.810;13.022;2024-03-02T05:44:28;6.40;99.90
14397;DHT22;50653;47.810;13.022;2024-03-02T05:46:54;6.40;99.90
14397;DHT22;50653;47.810;13.022;2024-03-02T05:49:20;6.50;99.90
14397;DHT22;50653;47.810;13.022;2024-03-02T05:51:46;6.40;99.90
14397;DHT22;50653;47.810;13.022;2024-03-02T05:54:12;6.30;99.90
14397;DHT22;50653;47.810;13.022;2024-03-02T05:56:37;6.10;99.90
14397;DHT22;50653;47.810;13.022;2024-03-02T05:59:03;6.20;99.90
14397;DHT22;50653;47.810;13.022;2024-03-02T06:01:42;6.20;99.90
14397;DHT22;50653;47.810;13.022;2024-03-02T06:04:09;6.00;99.90
14397;DHT22;50653;47.810;13.022;2024-03-02T06:06:35;6.00;99.90
14397;DHT22;50653;47.810;13.022;2024-03-02T06:09:01;6.00;99.90
14397;DHT22;50653;47.810;13.022;2024-03-02T06:11:28;5.70;99.90
14397;DHT22;50653;47.810;13.022;2024-03-02T06:13:53;5.80;99.90
14397;DHT22;50653;47.810;13.022;2024-03-02T06:16:20;5.80;99.90
14397;DHT22;50653;47.810;13.022;2024-03-02T06:18:45;5.90;99.90
14397;DHT22;50653;47.810;13.022;2024-03-02T06:21:11;5.90;99.90
14397;DHT22;50653;47.810;13.022;2024-03-02T06:23:37;5.90;99.90
14397;DHT22;50653;47.810;13.022;2024-03-02T06:26:03;5.80;99.90
14397;DHT22;50653;47.810;13.022;2024-03-02T06:28:28;5.70;99.90
14397;DHT22;50653;47.810;13.022;2024-03-02T06:30:54;5.50;99.90
14397;DHT22;50653;47.810;13.022;2024-03-02T06:33:20;5.50;99.90
14397;DHT22;50653;47.810;13.022;2024-03-02T06:35:45;5.40;99.90
14397;DHT22;50653;47.810;13.022;2024-03-02T06:38:11;5.50;99.90
14397;DHT22;50653;47.810;13.022;2024-03-02T06:40:37;5.40;99.90
14397;DHT22;50653;47.810;13.022;2024-03-02T06:43:06;5.40;99.90
14397;DHT22;50653;47.810;13.022;2024-03-02T06:45:31;5.50;99.90
14397;DHT22;50653;47.810;13.022;2024-03-02T06:47:59;5.60;99.90
14397;DHT22;50653;47.810;13.022;2024-03-02T06:50:25;5.70;99.90
14397;DHT22;50653;47.810;13.022;2024-03-02T06:52:51;5.80;99.90
14397;DHT22;50653;47.810;13.022;2024-03-02T06:55:17;5.80;99.90
14397;DHT22;50653;47.810;13.022;2024-03-02T06:57:42;5.80;99.90
14397;DHT22;50653;47.810;13.022;2024-03-02T07:00:08;5.90;99.90
14397;DHT22;50653;47.810;13.022;2024-03-02T07:02:35;6.00;99.90
14397;DHT22;50653;47.810;13.022;2024-03-02T07:05:02;6.10;99.90
14397;DHT22;50653;47.810;13.022;2024-03-02T07:07:28;6.10;99.90
14397;DHT22;50653;47.810;13.022;2024-03-02T07:09:53;6.20;99.90
14397;DHT22;50653;47.810;13.022;2024-03-02T07:12:19;6.30;99.90
14397;DHT22;50653;47.810;13.022;2024-03-02T07:14:45;6.30;99.90
14397;DHT22;50653;47.810;13.022;2024-03-02T07:17:29;6.40;99.90
14397;DHT22;50653;47.810;13.022;2024-03-02T07:19:55;6.40;99.90
14397;DHT22;50653;47.810;13.022;2024-03-02T07:22:21;6.40;99.90
14397;DHT22;50653;47.810;13.022;2024-03-02T07:24:47;6.50;99.90
14397;DHT22;50653;47.810;13.022;2024-03-02T07:27:13;6.60;99.90
14397;DHT22;50653;47.810;13.022;2024-03-02T07:29:39;6.50;99.90
14397;DHT22;50653;47.810;13.022;2024-03-02T07:32:06;6.50;99.90
14397;DHT22;50653;47.810;13.022;2024-03-02T07:34:32;6.40;99.90
14397;DHT22;50653;47.810;13.022;2024-03-02T07:36:58;6.40;99.90
14397;DHT22;50653;47.810;13.022;2024-03-02T07:39:24;6.50;99.90
14397;DHT22;50653;47.810;13.022;2024-03-02T07:41:50;6.60;99.90
14397;DHT22;50653;47.810;13.022;2024-03-02T07:44:16;6.60;99.90
14397;DHT22;50653;47.810;13.022;2024-03-02T07:46:45;6.70;99.90
14397;DHT22;50653;47.810;13.022;2024-03-02T07:49:20;6.80;99.90
14397;DHT22;50653;47.810;13.022;2024-03-02T07:51:46;6.80;99.90
14397;DHT22;50653;47.810;13.022;2024-03-02T07:54:12;6.80;99.90
14397;DHT22;50653;47.810;13.022;2024-03-02T07:56:37;6.90;99.90
14397;DHT22;50653;47.810;13.022;2024-03-02T07:59:04;6.90;99.90
14397;DHT22;50653;47.810;13.022;2024-03-02T08:01:33;6.80;99.90
14397;DHT22;50653;47.810;13.022;2024-03-02T08:04:00;6.90;99.90
14397;DHT22;50653;47.810;13.022;2024-03-02T08:06:27;7.00;99.90
14397;DHT22;50653;47.810;13.022;2024-03-02T08:08:59;7.10;99.90
14397;DHT22;50653;47.810;13.022;2024-03-02T08:11:25;7.20;99.90
14397;DHT22;50653;47.810;13.022;2024-03-02T08:13:52;7.20;99.90
14397;DHT22;50653;47.810;13.022;2024-03-02T08:16:21;7.40;99.90
14397;DHT22;50653;47.810;13.022;2024-03-02T08:18:48;7.40;99.90
14397;DHT22;50653;47.810;13.022;2024-03-02T08:21:14;7.60;99.90
14397;DHT22;50653;47.810;13.022;2024-03-02T08:23:40;7.60;99.90
14397;DHT22;50653;47.810;13.022;2024-03-02T08:26:10;7.70;99.90
14397;DHT22;50653;47.810;13.022;2024-03-02T08:28:36;7.70;99.90
14397;DHT22;50653;47.810;13.022;2024-03-02T08:31:03;7.80;99.90
14397;DHT22;50653;47.810;13.022;2024-03-02T08:33:29;7.80;99.90
14397;DHT22;50653;47.810;13.022;2024-03-02T08:35:55;7.80;99.90
14397;DHT22;50653;47.810;13.022;2024-03-02T08:38:21;7.70;99.90
14397;DHT22;50653;47.810;13.022;2024-03-02T08:40:47;7.80;99.90
14397;DHT22;50653;47.810;13.022;2024-03-02T08:43:13;7.70;99.90
14397;DHT22;50653;47.810;13.022;2024-03-02T08:45:39;7.60;99.90
14397;DHT22;50653;47.810;13.022;2024-03-02T08:48:08;7.50;99.90
14397;DHT22;50653;47.810;13.022;2024-03-02T08:50:34;7.60;99.90
14397;DHT22;50653;47.810;13.022;2024-03-02T08:53:00;7.50;99.90
14397;DHT22;50653;47.810;13.022;2024-03-02T08:55:26;7.60;99.90
14397;DHT22;50653;47.810;13.022;2024-03-02T08:57:52;7.70;99.90
14397;DHT22;50653;47.810;13.022;2024-03-02T09:00:18;7.60;99.90
14397;DHT22;50653;47.810;13.022;2024-03-02T09:02:44;7.70;99.90
14397;DHT22;50653;47.810;13.022;2024-03-02T09:05:10;7.70;99.90
14397;DHT22;50653;47.810;13.022;2024-03-02T09:07:36;7.80;99.90
14397;DHT22;50653;47.810;13.022;2024-03-02T09:10:07;7.90;99.90
14397;DHT22;50653;47.810;13.022;2024-03-02T09:12:33;8.00;99.90
14397;DHT22;50653;47.810;13.022;2024-03-02T09:15:03;8.00;99.90
14397;DHT22;50653;47.810;13.022;2024-03-02T09:17:29;8.10;99.90
14397;DHT22;50653;47.810;13.022;2024-03-02T09:19:55;8.10;99.90
14397;DHT22;50653;47.810;13.022;2024-03-02T09:22:21;8.20;99.90
14397;DHT22;50653;47.810;13.022;2024-03-02T09:24:47;8.30;99.90
14397;DHT22;50653;47.810;13.022;2024-03-02T09:27:12;8.30;99.90
14397;DHT22;50653;47.810;13.022;2024-03-02T09:29:38;8.30;99.90
14397;DHT22;50653;47.810;13.022;2024-03-02T09:32:05;8.30;99.90
14397;DHT22;50653;47.810;13.022;2024-03-02T09:34:31;8.40;99.90
14397;DHT22;50653;47.810;13.022;2024-03-02T09:36:57;8.50;99.90
14397;DHT22;50653;47.810;13.022;2024-03-02T09:39:23;8.70;99.90
14397;DHT22;50653;47.810;13.022;2024-03-02T09:41:51;8.80;99.90
14397;DHT22;50653;47.810;13.022;2024-03-02T09:44:17;8.90;99.90
14397;DHT22;50653;47.810;13.022;2024-03-02T09:46:43;8.90;99.90
14397;DHT22;50653;47.810;13.022;2024-03-02T09:49:10;9.00;99.90
14397;DHT22;50653;47.810;13.022;2024-03-02T09:51:37;9.00;99.90
14397;DHT22;50653;47.810;13.022;2024-03-02T09:54:03;9.10;99.90
14397;DHT22;50653;47.810;13.022;2024-03-02T09:56:29;9.30;99.90
14397;DHT22;50653;47.810;13.022;2024-03-02T09:58:55;9.30;99.90
14397;DHT22;50653;47.810;13.022;2024-03-02T10:01:20;9.30;99.90
14397;DHT22;50653;47.810;13.022;2024-03-02T10:03:47;9.40;99.90
14397;DHT22;50653;47.810;13.022;2024-03-02T10:06:19;9.50;99.90
14397;DHT22;50653;47.810;13.022;2024-03-02T10:08:45;9.60;99.90
14397;DHT22;50653;47.810;13.022;2024-03-02T10:11:11;9.70;99.90
14397;DHT22;50653;47.810;13.022;2024-03-02T10:13:49;9.70;99.90
14397;DHT22;50653;47.810;13.022;2024-03-02T10:16:14;9.90;99.90
14397;DHT22;50653;47.810;13.022;2024-03-02T10:18:42;9.90;99.90
14397;DHT22;50653;47.810;13.022;2024-03-02T10:21:14;10.00;99.90
14397;DHT22;50653;47.810;13.022;2024-03-02T10:23:40;10.00;99.90
14397;DHT22;50653;47.810;13.022;2024-03-02T10:26:17;10.00;99.90
14397;DHT22;50653;47.810;13.022;2024-03-02T10:28:47;10.00;99.90
14397;DHT22;50653;47.810;13.022;2024-03-02T10:31:13;10.00;99.90
14397;DHT22;50653;47.810;13.022;2024-03-02T10:33:40;10.10;99.90
14397;DHT22;50653;47.810;13.022;2024-03-02T10:36:05;10.10;99.90
14397;DHT22;50653;47.810;13.022;2024-03-02T10:38:31;10.30;99.90
14397;DHT22;50653;47.810;13.022;2024-03-02T10:40:58;10.30;99.90
14397;DHT22;50653;47.810;13.022;2024-03-02T10:43:25;10.50;99.90
14397;DHT22;50653;47.810;13.022;2024-03-02T10:45:52;10.40;99.90
14397;DHT22;50653;47.810;13.022;2024-03-02T10:48:19;10.40;99.90
14397;DHT22;50653;47.810;13.022;2024-03-02T10:50:47;10.50;99.90
14397;DHT22;50653;47.810;13.022;2024-03-02T10:53:12;10.60;99.90
14397;DHT22;50653;47.810;13.022;2024-03-02T10:55:38;10.50;99.90
14397;DHT22;50653;47.810;13.022;2024-03-02T10:58:04;10.50;99.90
14397;DHT22;50653;47.810;13.022;2024-03-02T11:00:33;10.70;99.90
14397;DHT22;50653;47.810;13.022;2024-03-02T11:03:07;10.90;99.90
14397;DHT22;50653;47.810;13.022;2024-03-02T11:05:37;10.80;99.90
14397;DHT22;50653;47.810;13.022;2024-03-02T11:08:08;10.90;99.90
14397;DHT22;50653;47.810;13.022;2024-03-02T11:10:37;11.00;99.90
14397;DHT22;50653;47.810;13.022;2024-03-02T11:13:12;11.00;99.90
14397;DHT22;50653;47.810;13.022;2024-03-02T11:15:40;11.00;99.90
14397;DHT22;50653;47.810;13.022;2024-03-02T11:18:06;11.20;99.90
14397;DHT22;50653;47.810;13.022;2024-03-02T11:20:38;11.20;99.90
14397;DHT22;50653;47.810;13.022;2024-03-02T11:23:06;11.40;99.90
14397;DHT22;50653;47.810;13.022;2024-03-02T11:25:32;11.50;99.90
14397;DHT22;50653;47.810;13.022;2024-03-02T11:28:02;11.50;99.90
14397;DHT22;50653;47.810;13.022;2024-03-02T11:33:02;11.60;99.90
14397;DHT22;50653;47.810;13.022;2024-03-02T11:35:40;11.60;99.90
14397;DHT22;50653;47.810;13.022;2024-03-02T11:38:08;11.70;99.90
14397;DHT22;50653;47.810;13.022;2024-03-02T11:40:34;11.70;99.90
14397;DHT22;50653;47.810;13.022;2024-03-02T11:43:00;11.70;99.90
14397;DHT22;50653;47.810;13.022;2024-03-02T11:45:27;11.70;99.90
14397;DHT22;50653;47.810;13.022;2024-03-02T11:47:59;11.80;99.90
14397;DHT22;50653;47.810;13.022;2024-03-02T11:50:36;11.90;99.90
14397;DHT22;50653;47.810;13.022;2024-03-02T11:53:06;11.80;99.90
14397;DHT22;50653;47.810;13.022;2024-03-02T11:55:35;11.90;99.90
14397;DHT22;50653;47.810;13.022;2024-03-02T11:58:06;12.10;99.90
14397;DHT22;50653;47.810;13.022;2024-03-02T12:00:31;12.20;99.90
14397;DHT22;50653;47.810;13.022;2024-03-02T12:03:08;12.20;99.90
14397;DHT22;50653;47.810;13.022;2024-03-02T12:05:34;12.40;99.90
14397;DHT22;50653;47.810;13.022;2024-03-02T12:08:02;12.40;99.90
14397;DHT22;50653;47.810;13.022;2024-03-02T12:10:29;12.30;99.90
14397;DHT22;50653;47.810;13.022;2024-03-02T12:13:04;12.50;99.90
14397;DHT22;50653;47.810;13.022;2024-03-02T12:15:32;12.50;99.90
14397;DHT22;50653;47.810;13.022;2024-03-02T12:18:00;12.60;99.90
14397;DHT22;50653;47.810;13.022;2024-03-02T12:20:27;12.70;99.90
14397;DHT22;50653;47.810;13.022;2024-03-02T12:22:55;12.60;99.90
14397;DHT22;50653;47.810;13.022;2024-03-02T12:25:22;12.70;99.90
14397;DHT22;50653;47.810;13.022;2024-03-02T12:27:55;12.80;99.90
14397;DHT22;50653;47.810;13.022;2024-03-02T12:30:22;12.70;99.90
14397;DHT22;50653;47.810;13.022;2024-03-02T12:32:50;12.80;99.90
14397;DHT22;50653;47.810;13.022;2024-03-02T12:35:18;12.80;99.90
14397;DHT22;50653;47.810;13.022;2024-03-02T12:37:50;12.80;99.90
14397;DHT22;50653;47.810;13.022;2024-03-02T12:40:17;12.90;99.90
14397;DHT22;50653;47.810;13.022;2024-03-02T12:42:44;12.90;99.90
14397;DHT22;50653;47.810;13.022;2024-03-02T12:45:11;13.10;99.90
14397;DHT22;50653;47.810;13.022;2024-03-02T12:47:37;13.00;99.90
14397;DHT22;50653;47.810;13.022;2024-03-02T12:50:05;13.00;99.90
14397;DHT22;50653;47.810;13.022;2024-03-02T12:52:31;13.00;99.90
14397;DHT22;50653;47.810;13.022;2024-03-02T12:55:00;13.10;99.90
14397;DHT22;50653;47.810;13.022;2024-03-02T12:57:29;13.20;99.90
14397;DHT22;50653;47.810;13.022;2024-03-02T13:00:05;13.30;99.90
14397;DHT22;50653;47.810;13.022;2024-03-02T13:02:40;13.20;99.90
14397;DHT22;50653;47.810;13.022;2024-03-02T13:05:07;13.40;99.90
14397;DHT22;50653;47.810;13.022;2024-03-02T13:07:37;13.40;99.90
14397;DHT22;50653;47.810;13.022;2024-03-02T13:10:04;13.40;99.90
14397;DHT22;50653;47.810;13.022;2024-03-02T13:12:30;13.40;99.90
14397;DHT22;50653;47.810;13.022;2024-03-02T13:14:58;13.50;99.90
14397;DHT22;50653;47.810;13.022;2024-03-02T13:17:24;13.50;99.90
14397;DHT22;50653;47.810;13.022;2024-03-02T13:19:57;13.60;99.90
14397;DHT22;50653;47.810;13.022;2024-03-02T13:22:23;13.60;99.90
14397;DHT22;50653;47.810;13.022;2024-03-02T13:24:50;13.60;99.90
14397;DHT22;50653;47.810;13.022;2024-03-02T13:27:17;13.70;99.90
14397;DHT22;50653;47.810;13.022;2024-03-02T13:29:46;13.80;99.90
14397;DHT22;50653;47.810;13.022;2024-03-02T13:32:16;13.90;99.90
14397;DHT22;50653;47.810;13.022;2024-03-02T13:34:42;14.00;99.90
14397;DHT22;50653;47.810;13.022;2024-03-02T13:37:08;14.00;99.90
14397;DHT22;50653;47.810;13.022;2024-03-02T13:39:34;14.00;99.90
14397;DHT22;50653;47.810;13.022;2024-03-02T13:42:09;14.10;99.90
14397;DHT22;50653;47.810;13.022;2024-03-02T13:44:36;14.10;99.90
14397;DHT22;50653;47.810;13.022;2024-03-02T13:47:02;14.10;99.90
14397;DHT22;50653;47.810;13.022;2024-03-02T13:49:28;14.20;99.90
14397;DHT22;50653;47.810;13.022;2024-03-02T13:52:03;14.20;99.90
14397;DHT22;50653;47.810;13.022;2024-03-02T13:54:37;14.20;99.90
14397;DHT22;50653;47.810;13.022;2024-03-02T13:57:03;14.30;99.90
14397;DHT22;50653;47.810;13.022;2024-03-02T13:59:29;14.40;99.90
14397;DHT22;50653;47.810;13.022;2024-03-02T14:01:55;14.40;99.90
14397;DHT22;50653;47.810;13.022;2024-03-02T14:04:20;14.40;99.90
14397;DHT22;50653;47.810;13.022;2024-03-02T14:06:46;14.50;99.90
14397;DHT22;50653;47.810;13.022;2024-03-02T14:09:12;14.60;99.90
14397;DHT22;50653;47.810;13.022;2024-03-02T14:11:37;14.60;99.90
14397;DHT22;50653;47.810;13.022;2024-03-02T14:14:03;14.60;99.90
14397;DHT22;50653;47.810;13.022;2024-03-02T14:16:29;14.60;99.90
14397;DHT22;50653;47.810;13.022;2024-03-02T14:18:54;14.60;99.90
14397;DHT22;50653;47.810;13.022;2024-03-02T14:21:20;14.70;99.90
14397;DHT22;50653;47.810;13.022;2024-03-02T14:23:46;14.70;99.90
14397;DHT22;50653;47.810;13.022;2024-03-02T14:26:11;14.70;99.90
14397;DHT22;50653;47.810;13.022;2024-03-02T14:28:37;14.70;99.90
14397;DHT22;50653;47.810;13.022;2024-03-02T14:31:03;14.70;99.90
14397;DHT22;50653;47.810;13.022;2024-03-02T14:33:29;14.70;99.90
14397;DHT22;50653;47.810;13.022;2024-03-02T14:35:54;14.70;99.90
14397;DHT22;50653;47.810;13.022;2024-03-02T14:38:21;14.70;99.90
14397;DHT22;50653;47.810;13.022;2024-03-02T14:40:47;14.70;99.90
14397;DHT22;50653;47.810;13.022;2024-03-02T14:43:15;14.70;99.90
14397;DHT22;50653;47.810;13.022;2024-03-02T14:45:41;14.70;99.90
14397;DHT22;50653;47.810;13.022;2024-03-02T14:48:07;14.60;99.90
14397;DHT22;50653;47.810;13.022;2024-03-02T14:50:33;14.70;99.90
14397;DHT22;50653;47.810;13.022;2024-03-02T14:52:59;14.80;99.90
14397;DHT22;50653;47.810;13.022;2024-03-02T14:55:25;14.80;99.90
14397;DHT22;50653;47.810;13.022;2024-03-02T14:57:51;14.80;99.90
14397;DHT22;50653;47.810;13.022;2024-03-02T15:00:17;14.80;99.90
14397;DHT22;50653;47.810;13.022;2024-03-02T15:02:43;14.80;99.90
14397;DHT22;50653;47.810;13.022;2024-03-02T15:05:09;14.80;99.90
14397;DHT22;50653;47.810;13.022;2024-03-02T15:07:34;14.80;99.90
14397;DHT22;50653;47.810;13.022;2024-03-02T15:10:00;14.70;99.90
14397;DHT22;50653;47.810;13.022;2024-03-02T15:12:26;14.70;99.90
14397;DHT22;50653;47.810;13.022;2024-03-02T15:14:52;14.70;99.90
14397;DHT22;50653;47.810;13.022;2024-03-02T15:17:17;14.70;99.90
14397;DHT22;50653;47.810;13.022;2024-03-02T15:19:46;14.60;99.90
14397;DHT22;50653;47.810;13.022;2024-03-02T15:22:12;14.50;99.90
14397;DHT22;50653;47.810;13.022;2024-03-02T15:24:38;14.50;99.90
14397;DHT22;50653;47.810;13.022;2024-03-02T15:27:05;14.40;99.90